Time;durP1;ratioP1;P1;durP2;ratioP2;P2;SDS_P1;SDS_P2;PMS_P1;PMS_P2;Temp;Humidity;BMP_temperature;BMP_pressure;BME280_temperature;BME280_humidity;BME280_pressure;Samples;Min_cycle;Max_cycle;Signal;HPM_P1;HPM_P2
2023/11/03 00:01:34;;;;;;;;;18.00;16.67;;;;;12.66;95.87;97663.38;6278504;20;3567043;-43
2023/11/03 00:04:08;;;;;;;;;13.50;12.50;;;;;12.87;95.20;97660.31;6285536;20;2786783;-44
2023/11/03 00:06:44;;;;;;;;;10.67;10.67;;;;;12.67;95.07;97656.19;6279058;20;3506609;-49
2023/11/03 00:09:15;;;;;;;;;15.00;13.00;;;;;12.74;95.04;97662.59;6314722;20;3533604;-44
2023/11/03 00:11:48;;;;;;;;;17.33;14.33;;;;;12.86;94.96;97658.66;6278496;20;3538871;-47
2023/11/03 00:14:17;;;;;;;;;15.50;13.00;;;;;12.73;94.49;97652.84;6315625;20;2805516;-44
2023/11/03 00:16:45;;;;;;;;;13.00;11.50;;;;;12.84;93.84;97643.66;6285066;20;2790982;-45
2023/11/03 00:19:15;;;;;;;;;15.67;13.33;;;;;12.77;93.97;97638.06;6282371;20;3534661;-44
2023/11/03 00:21:44;;;;;;;;;14.33;12.33;;;;;12.69;94.72;97638.00;6309448;20;3525264;-44
2023/11/03 00:24:14;;;;;;;;;13.50;13.50;;;;;12.67;94.49;97626.56;6311233;20;3395039;-45
2023/11/03 00:26:44;;;;;;;;;16.00;13.50;;;;;12.65;94.70;97613.25;6314671;20;2791009;-44
2023/11/03 00:29:15;;;;;;;;;17.00;14.00;;;;;12.67;94.51;97602.34;6278558;20;3546060;-43
2023/11/03 00:31:47;;;;;;;;;13.00;13.00;;;;;12.60;94.21;97595.88;6278721;20;3523167;-45
2023/11/03 00:34:20;;;;;;;;;14.00;13.00;;;;;12.70;93.46;97593.94;6310843;20;2800354;-44
2023/11/03 00:36:49;;;;;;;;;14.00;12.00;;;;;12.70;93.51;97593.94;6278781;20;3530574;-45
2023/11/03 00:39:18;;;;;;;;;22.00;17.00;;;;;12.74;93.13;97596.16;6284385;20;2836811;-46
2023/11/03 00:41:51;;;;;;;;;23.00;19.00;;;;;12.73;92.76;97593.59;6284858;20;2852336;-44
2023/11/03 00:44:20;;;;;;;;;19.33;14.00;;;;;12.88;92.95;97580.41;6284894;20;3548293;-44
2023/11/03 00:46:49;;;;;;;;;15.67;15.67;;;;;12.76;92.87;97574.44;6286638;20;3552394;-46
2023/11/03 00:49:21;;;;;;;;;23.00;21.00;;;;;12.66;92.46;97569.16;6284594;20;2839863;-45
2023/11/03 00:51:50;;;;;;;;;52.00;39.67;;;;;12.66;92.55;97571.00;6283319;20;3624211;-46
2023/11/03 00:54:19;;;;;;;;;30.33;26.00;;;;;12.72;92.36;97575.78;6319115;20;3604413;-43
2023/11/03 00:56:48;;;;;;;;;16.00;13.00;;;;;12.70;93.25;97559.75;6284098;20;3528605;-46
2023/11/03 00:59:18;;;;;;;;;27.33;27.33;;;;;12.85;92.60;97549.25;6282987;20;2856690;-44
2023/11/03 01:01:47;;;;;;;;;16.50;15.50;;;;;12.75;91.77;97543.13;6315690;20;2827368;-44
2023/11/03 01:04:15;;;;;;;;;18.00;15.00;;;;;12.95;91.81;97543.72;6283206;20;2818142;-44
2023/11/03 01:06:44;;;;;;;;;17.00;15.00;;;;;12.88;91.34;97540.00;6285096;20;2496220;-45
2023/11/03 01:09:13;;;;;;;;;26.33;23.33;;;;;12.63;92.05;97528.25;6287582;20;3586686;-43
2023/11/03 01:11:41;;;;;;;;;13.00;12.00;;;;;12.83;91.65;97529.72;6282515;20;2784676;-45
2023/11/03 01:14:09;;;;;;;;;12.00;12.00;;;;;12.87;91.33;97539.13;6321194;20;2784769;-45
2023/11/03 01:16:38;;;;;;;;;14.00;14.00;;;;;12.83;92.01;97537.78;6285138;20;3525397;-45
2023/11/03 01:19:07;;;;;;;;;13.00;13.00;;;;;12.83;91.24;97531.56;6319500;20;2815908;-44
2023/11/03 01:21:39;;;;;;;;;11.00;11.00;;;;;12.72;91.45;97527.31;6281131;20;3516953;-45
2023/11/03 01:24:10;;;;;;;;;8.50;8.50;;;;;12.84;92.95;97536.75;6317795;20;2746235;-45
2023/11/03 01:26:39;;;;;;;;;12.00;11.00;;;;;12.70;92.39;97519.38;6287211;20;2794067;-45
2023/11/03 01:29:08;;;;;;;;;10.67;10.67;;;;;12.84;92.32;97504.44;6282921;20;3513790;-44
2023/11/03 01:31:37;;;;;;;;;13.67;11.00;;;;;12.82;92.29;97517.25;6314091;20;2779560;-44
2023/11/03 01:34:06;;;;;;;;;11.33;11.33;;;;;12.74;92.26;97503.72;6314283;20;2788930;-45
2023/11/03 01:36:35;;;;;;;;;12.67;11.33;;;;;12.76;92.05;97508.97;6313439;20;3512769;-46
2023/11/03 01:39:08;;;;;;;;;12.50;12.50;;;;;12.71;91.64;97509.44;6319003;20;2802357;-44
2023/11/03 01:41:37;;;;;;;;;22.50;21.00;;;;;13.02;90.74;97507.03;6284284;20;2827509;-46
2023/11/03 01:44:11;;;;;;;;;26.50;19.00;;;;;12.85;90.65;97499.91;6284663;20;2852491;-47
2023/11/03 01:46:41;;;;;;;;;13.00;13.00;;;;;12.81;91.82;97493.16;6287183;20;2795385;-49
2023/11/03 01:49:11;;;;;;;;;19.50;19.00;;;;;12.82;91.36;97494.84;6281534;20;2496151;-47
2023/11/03 01:51:42;;;;;;;;;17.00;14.33;;;;;12.74;90.82;97504.59;6283494;20;3537787;-47
2023/11/03 01:54:12;;;;;;;;;17.00;15.50;;;;;12.88;90.88;97500.44;6279495;20;2480481;-49
2023/11/03 01:56:41;;;;;;;;;25.00;18.67;;;;;12.68;91.32;97488.22;6283503;20;2852405;-48
2023/11/03 01:59:11;;;;;;;;;10.67;10.67;;;;;12.74;91.22;97498.34;6315718;20;3518041;-47
2023/11/03 02:01:45;;;;;;;;;10.00;10.00;;;;;12.74;91.38;97492.97;6313833;20;3517999;-45
2023/11/03 02:04:12;;;;;;;;;20.00;14.50;;;;;12.62;91.65;97473.56;6314195;20;2496137;-46
2023/11/03 02:06:41;;;;;;;;;20.67;19.00;;;;;12.66;91.81;97485.69;6284286;20;3573192;-44
2023/11/03 02:09:10;;;;;;;;;29.50;24.00;;;;;12.70;91.97;97459.31;6284396;20;2848278;-45
2023/11/03 02:11:48;;;;;;;;;13.33;13.33;;;;;12.87;91.92;97458.34;6279746;20;3514950;-43
2023/11/03 02:14:17;;;;;;;;;19.50;17.50;;;;;12.61;92.64;97450.38;6310589;20;2823198;-46
2023/11/03 02:16:47;;;;;;;;;10.67;9.00;;;;;12.70;92.27;97448.53;6281662;20;2768195;-44
2023/11/03 02:19:16;;;;;;;;;9.00;9.00;;;;;12.56;93.45;97430.28;6313233;20;3473210;-43
2023/11/03 02:21:46;;;;;;;;;14.00;11.00;;;;;12.60;92.52;97420.91;6310540;20;3518052;-46
2023/11/03 02:24:15;;;;;;;;;11.67;11.00;;;;;12.61;93.29;97428.84;6312942;20;3513809;-44
2023/11/03 02:26:45;;;;;;;;;13.20;10.60;;;;;12.45;92.83;97426.06;6339100;20;2786756;-43
2023/11/03 02:29:13;;;;;;;;;11.00;11.00;;;;;12.61;92.46;97417.19;6283956;20;2811874;-45
2023/11/03 02:31:45;;;;;;;;;11.67;11.00;;;;;12.57;92.63;97416.69;6314280;20;2788816;-44
2023/11/03 02:34:13;;;;;;;;;10.50;9.50;;;;;12.71;92.44;97407.97;6317118;20;2783606;-44
2023/11/03 02:36:41;;;;;;;;;11.50;10.00;;;;;12.56;92.65;97408.75;6288114;20;2791987;-44
2023/11/03 02:39:09;;;;;;;;;9.00;8.00;;;;;12.49;92.80;97405.91;6286236;20;2759754;-46
2023/11/03 02:41:37;;;;;;;;;11.00;11.00;;;;;12.80;92.23;97403.47;6285146;20;2796154;-50
2023/11/03 02:44:05;;;;;;;;;9.00;9.00;;;;;12.66;92.56;97404.09;6287179;20;2752492;-48
2023/11/03 02:46:35;;;;;;;;;10.60;9.00;;;;;12.64;92.54;97392.66;6310013;20;2764986;-48
2023/11/03 02:49:05;;;;;;;;;10.00;9.40;;;;;12.69;91.97;97390.28;6307199;20;2785712;-47
2023/11/03 02:51:33;;;;;;;;;9.00;9.00;;;;;12.67;92.37;97381.56;6282212;20;2759652;-49
2023/11/03 02:54:01;;;;;;;;;11.00;9.00;;;;;12.52;92.68;97366.03;6293599;20;1995114;-51
2023/11/03 02:56:31;;;;;;;;;10.40;9.00;;;;;12.44;92.90;97368.69;6305562;20;2769050;-48
2023/11/03 02:59:00;;;;;;;;;11.00;10.00;;;;;12.46;93.23;97374.75;6306858;20;2781529;-48
2023/11/03 03:01:36;;;;;;;;;8.00;7.00;;;;;12.49;93.57;97368.22;6280283;20;2739902;-49
2023/11/03 03:04:04;;;;;;;;;8.00;8.00;;;;;12.40;92.98;97358.41;6288773;20;2731534;-48
2023/11/03 03:06:35;;;;;;;;;11.00;9.00;;;;;12.49;93.52;97339.44;6281661;20;2763818;-48
2023/11/03 03:09:06;;;;;;;;;6.43;6.43;;;;;12.49;93.60;97315.22;6355954;20;3456569;-48
2023/11/03 03:11:34;;;;;;;;;9.00;9.00;;;;;12.51;93.55;97312.38;6319336;20;2748194;-49
2023/11/03 03:14:01;;;;;;;;;9.00;9.00;;;;;12.44;92.93;97314.88;6283960;20;2759623;-49
2023/11/03 03:16:29;;;;;;;;;8.00;6.00;;;;;12.60;92.69;97305.16;6283645;20;2734698;-48
2023/11/03 03:18:57;;;;;;;;;11.50;6.00;;;;;12.34;93.35;97281.88;6286367;20;2769557;-48
2023/11/03 03:21:25;;;;;;;;;8.50;7.50;;;;;12.25;93.84;97277.50;6282985;20;2739892;-47
2023/11/03 03:23:53;;;;;;;;;9.00;9.00;;;;;12.32;93.86;97281.19;6281561;20;2745070;-52
2023/11/03 03:26:21;;;;;;;;;10.00;8.00;;;;;12.43;93.76;97291.66;6278542;20;2769045;-54
2023/11/03 03:28:49;;;;;;;;;8.00;7.00;;;;;12.20;94.62;97290.59;6284572;20;2736778;-48
2023/11/03 03:31:18;;;;;;;;;12.00;9.00;;;;;12.36;93.86;97295.19;6276046;20;2770083;-48
2023/11/03 03:33:47;;;;;;;;;12.00;9.00;;;;;12.26;94.61;97295.31;6282127;20;2763824;-48
2023/11/03 03:36:17;;;;;;;;;5.60;5.60;;;;;12.29;93.97;97294.97;6309816;20;2748199;-49
2023/11/03 03:38:45;;;;;;;;;7.50;7.50;;;;;12.34;93.73;97298.03;6313452;20;2734666;-48
2023/11/03 03:41:16;;;;;;;;;7.86;7.86;;;;;12.13;94.30;97298.47;6327223;20;1791972;-49
2023/11/03 03:43:46;;;;;;;;;10.60;10.60;;;;;12.13;94.72;97289.56;6338850;20;2789973;-48
2023/11/03 03:46:14;;;;;;;;;7.50;7.50;;;;;12.37;94.21;97292.31;6283223;20;2737818;-53
2023/11/03 03:48:43;;;;;;;;;8.00;8.00;;;;;12.68;92.93;97305.16;6283553;20;2748164;-49
2023/11/03 03:51:14;;;;;;;;;8.00;8.00;;;;;12.34;94.54;97316.84;6285330;20;2748229;-51
2023/11/03 03:53:43;;;;;;;;;16.67;15.00;;;;;12.54;93.62;97308.50;6284123;20;3554378;-50
2023/11/03 03:56:11;;;;;;;;;18.50;17.50;;;;;12.38;94.03;97296.69;6312089;20;2494010;-48
2023/11/03 03:58:39;;;;;;;;;13.00;11.33;;;;;12.43;93.15;97290.84;6282436;20;2790000;-50
2023/11/03 04:01:08;;;;;;;;;12.67;10.67;;;;;12.54;93.50;97292.38;6308259;20;2781626;-48
2023/11/03 04:03:36;;;;;;;;;11.50;9.00;;;;;12.30;93.37;97275.16;6307107;20;2767051;-52
2023/11/03 04:06:04;;;;;;;;;10.00;9.00;;;;;12.31;93.56;97271.44;6279898;20;2773211;-50
2023/11/03 04:08:32;;;;;;;;;11.00;9.50;;;;;12.29;93.82;97271.59;6282461;20;2769152;-50
2023/11/03 04:11:00;;;;;;;;;10.50;10.50;;;;;12.20;93.85;97266.38;6278363;20;2790929;-53
2023/11/03 04:13:28;;;;;;;;;12.00;9.00;;;;;12.21;94.27;97260.00;6280265;20;2771102;-51
2023/11/03 04:15:56;;;;;;;;;11.00;9.00;;;;;12.25;94.46;97250.59;6283084;20;2776387;-51
2023/11/03 04:18:24;;;;;;;;;8.00;8.00;;;;;12.12;94.73;97245.69;6285000;20;2744227;-49
2023/11/03 04:20:54;;;;;;;;;10.00;9.00;;;;;12.47;94.41;97246.41;6305190;20;2756544;-52
2023/11/03 04:23:22;;;;;;;;;6.00;6.00;;;;;12.43;94.01;97245.91;6286496;20;2731543;-48
2023/11/03 04:25:53;;;;;;;;;10.00;8.00;;;;;12.20;94.93;97239.50;6303887;20;2765876;-49
2023/11/03 04:28:21;;;;;;;;;12.00;12.00;;;;;12.26;94.61;97236.13;6281375;20;2786754;-51
2023/11/03 04:30:50;;;;;;;;;10.50;9.00;;;;;12.19;94.68;97235.97;6280808;20;2769070;-51
2023/11/03 04:33:18;;;;;;;;;11.50;9.50;;;;;12.32;94.58;97231.94;6279734;20;2774271;-50
2023/11/03 04:35:46;;;;;;;;;7.00;7.00;;;;;12.49;94.86;97221.03;6281134;20;2748188;-50
2023/11/03 04:38:16;;;;;;;;;10.20;9.40;;;;;12.15;95.16;97212.25;6306995;20;2760717;-49
2023/11/03 04:40:45;;;;;;;;;9.80;9.80;;;;;12.10;95.86;97204.66;6303416;20;2783734;-50
2023/11/03 04:43:15;;;;;;;;;10.40;8.60;;;;;12.03;96.17;97195.56;6309627;20;2775317;-50
2023/11/03 04:45:44;;;;;;;;;10.50;8.00;;;;;12.25;95.49;97196.78;6282299;20;2796151;-48
2023/11/03 04:48:13;;;;;;;;;9.50;8.00;;;;;12.27;95.95;97184.03;6283816;20;2758577;-49
2023/11/03 04:50:41;;;;;;;;;10.67;10.67;;;;;12.24;95.54;97173.56;6279212;20;2791964;-48
2023/11/03 04:53:09;;;;;;;;;11.00;8.00;;;;;12.20;96.18;97169.53;6311718;20;2771154;-49
2023/11/03 04:55:39;;;;;;;;;10.00;9.00;;;;;12.16;96.14;97166.31;6308767;20;2750408;-48
2023/11/03 04:58:07;;;;;;;;;10.00;9.00;;;;;12.18;96.46;97158.94;6310107;20;2773251;-48
2023/11/03 05:00:35;;;;;;;;;8.00;8.00;;;;;12.26;96.56;97150.03;6282489;20;2756583;-48
2023/11/03 05:03:03;;;;;;;;;7.50;6.50;;;;;12.16;96.44;97149.34;6280160;20;2744009;-46
2023/11/03 05:05:32;;;;;;;;;8.00;8.00;;;;;12.02;97.39;97143.63;6282523;20;2748186;-48
2023/11/03 05:08:02;;;;;;;;;8.60;8.60;;;;;12.14;97.32;97138.78;6302394;20;2753397;-44
2023/11/03 05:10:30;;;;;;;;;10.00;10.00;;;;;11.92;97.67;97132.19;6315031;20;2787605;-45
2023/11/03 05:13:00;;;;;;;;;11.20;7.80;;;;;12.00;97.94;97124.13;6306363;20;2768027;-46
2023/11/03 05:15:30;;;;;;;;;8.00;8.00;;;;;12.04;98.03;97128.16;6303365;20;2752414;-49
2023/11/03 05:17:59;;;;;;;;;10.00;8.50;;;;;12.06;98.04;97118.09;6313514;20;2761779;-47
2023/11/03 05:20:28;;;;;;;;;10.00;9.50;;;;;11.84;98.69;97119.53;6279447;20;2768000;-52
2023/11/03 05:22:58;;;;;;;;;9.40;9.40;;;;;12.09;98.55;97122.31;6306374;20;2744109;-48
2023/11/03 05:25:28;;;;;;;;;9.00;5.80;;;;;12.11;98.22;97117.56;6307187;20;2755551;-46
2023/11/03 05:27:57;;;;;;;;;11.60;8.60;;;;;12.02;98.54;97116.72;6341259;20;2765914;-46
2023/11/03 05:30:25;;;;;;;;;8.00;8.00;;;;;11.90;98.83;97125.28;6289735;20;2739900;-45
2023/11/03 05:32:53;;;;;;;;;9.00;7.50;;;;;12.07;97.84;97125.16;6287489;20;2746215;-45
2023/11/03 05:35:21;;;;;;;;;12.00;9.50;;;;;11.95;98.77;97128.31;6282842;20;2777444;-44
2023/11/03 05:37:52;;;;;;;;;8.00;7.50;;;;;12.02;98.26;97124.81;6287065;20;2739937;-47
2023/11/03 05:40:21;;;;;;;;;13.67;10.00;;;;;11.82;99.32;97126.06;6280682;20;2790191;-45
2023/11/03 05:42:51;;;;;;;;;11.20;9.80;;;;;11.80;98.71;97128.94;6342930;20;2777456;-44
2023/11/03 05:45:19;;;;;;;;;9.00;9.00;;;;;11.76;99.48;97124.06;6282588;20;2752404;-45
2023/11/03 05:47:49;;;;;;;;;10.00;10.00;;;;;11.95;99.42;97129.16;6311063;20;2780523;-46
2023/11/03 05:50:16;;;;;;;;;9.00;9.00;;;;;11.95;99.06;97131.84;6288251;20;2749260;-45
2023/11/03 05:52:44;;;;;;;;;11.50;8.00;;;;;12.07;98.70;97125.16;6285378;20;2765029;-45
2023/11/03 05:55:12;;;;;;;;;9.50;9.50;;;;;12.07;99.25;97124.31;6286912;20;2765930;-44
2023/11/03 05:57:40;;;;;;;;;9.00;9.00;;;;;12.14;99.55;97127.16;6290854;20;2735746;-45
2023/11/03 06:00:11;;;;;;;;;12.80;9.60;;;;;12.29;98.45;97122.78;6308902;20;2784826;-44
2023/11/03 06:02:41;;;;;;;;;11.40;9.00;;;;;12.39;98.17;97134.22;6310337;20;2759786;-44
2023/11/03 06:05:09;;;;;;;;;10.00;9.00;;;;;12.31;98.01;97126.16;6284789;20;2763980;-44
2023/11/03 06:07:37;;;;;;;;;8.00;7.00;;;;;12.44;97.14;97126.50;6288062;20;2754508;-45
2023/11/03 06:10:06;;;;;;;;;9.50;9.50;;;;;12.22;98.09;97122.63;6285629;20;2771210;-39
2023/11/03 06:12:37;;;;;;;;;12.00;9.80;;;;;12.36;97.73;97110.34;6334567;20;1917001;-40
2023/11/03 06:15:08;;;;;;;;;11.00;10.20;;;;;12.54;97.02;97120.09;6341465;20;2785770;-39
2023/11/03 06:17:36;;;;;;;;;8.00;8.00;;;;;12.55;96.71;97111.00;6288329;20;2735772;-39
2023/11/03 06:20:08;;;;;;;;;11.33;11.33;;;;;12.53;96.72;97119.25;6283515;20;3514835;-39
2023/11/03 06:22:36;;;;;;;;;17.50;16.00;;;;;12.72;96.23;97108.13;6311915;20;2491908;-40
2023/11/03 06:25:04;;;;;;;;;11.50;9.50;;;;;12.88;95.10;97103.72;6289898;20;2783660;-39
2023/11/03 06:27:32;;;;;;;;;11.00;9.50;;;;;12.89;94.42;97103.53;6286435;20;2779409;-39
2023/11/03 06:30:00;;;;;;;;;9.00;9.00;;;;;12.99;94.21;97099.81;6289184;20;2756600;-40
2023/11/03 06:32:28;;;;;;;;;10.00;8.50;;;;;13.07;93.72;97105.16;6283367;20;2762836;-41
2023/11/03 06:34:56;;;;;;;;;12.33;11.00;;;;;13.10;93.15;97115.59;6283799;20;2794076;-43
2023/11/03 06:37:24;;;;;;;;;12.50;11.00;;;;;13.27;92.88;97111.00;6316109;20;2791940;-39
2023/11/03 06:39:54;;;;;;;;;12.40;10.20;;;;;13.36;92.46;97115.34;6309857;20;2791135;-39
2023/11/03 06:42:25;;;;;;;;;9.00;7.00;;;;;13.52;91.42;97114.44;6328186;20;1806578;-37
2023/11/03 06:44:54;;;;;;;;;12.00;10.67;;;;;14.38;86.54;97128.72;6315541;20;2788907;-48
2023/11/03 06:47:22;;;;;;;;;11.00;11.00;;;;;13.77;88.47;97112.41;6319760;20;2789962;-40
2023/11/03 06:49:51;;;;;;;;;10.33;9.33;;;;;18.36;69.01;97112.66;6285075;20;2781579;-45
2023/11/03 06:52:18;;;;;;;;;8.00;7.00;;;;;17.60;67.60;97106.59;6313549;20;2746289;-43
2023/11/03 06:54:47;;;;;;;;;13.00;11.67;;;;;15.25;78.74;97103.88;6282393;20;2789165;-40
2023/11/03 06:57:18;;;;;;;;;8.60;7.00;;;;;14.67;82.86;97106.38;6340594;20;2754481;-41
2023/11/03 06:59:47;;;;;;;;;7.67;7.00;;;;;14.24;85.35;97101.50;6310213;20;2744092;-40
2023/11/03 07:02:15;;;;;;;;;9.50;8.00;;;;;14.21;85.25;97099.13;6313959;20;2741946;-39
2023/11/03 07:04:46;;;;;;;;;11.86;11.57;;;;;14.12;85.81;97105.63;6325322;20;1801398;-40
2023/11/03 07:07:17;;;;;;;;;9.00;7.00;;;;;14.30;85.26;97093.66;6315951;20;2737748;-39
2023/11/03 07:09:46;;;;;;;;;10.00;10.00;;;;;14.20;85.22;97092.06;6282200;20;2781646;-39
2023/11/03 07:12:15;;;;;;;;;16.33;11.67;;;;;14.16;86.05;97096.13;6313445;20;3526278;-39
2023/11/03 07:14:45;;;;;;;;;13.33;11.33;;;;;14.14;85.49;97082.00;6313683;20;3519007;-39
2023/11/03 07:17:14;;;;;;;;;21.33;18.00;;;;;14.43;85.24;97075.00;6317845;20;3579845;-39
2023/11/03 07:19:43;;;;;;;;;38.67;32.67;;;;;14.31;85.66;97071.91;6284889;20;3601297;-38
2023/11/03 07:22:15;;;;;;;;;133.33;118.00;;;;;14.32;85.52;97065.47;6281042;20;3722198;-38
2023/11/03 07:24:45;;;;;;;;;98.33;87.67;;;;;14.45;85.31;97071.06;6278289;20;3667013;-39
2023/11/03 07:27:13;;;;;;;;;621.00;475.67;;;;;14.40;84.87;97059.16;6241907;20;3221135;-39
2023/11/03 07:29:41;;;;;;;;;27.50;25.00;;;;;14.56;85.26;97060.88;6281493;20;2488858;-39
2023/11/03 07:32:10;;;;;;;;;164.00;130.67;;;;;14.50;85.04;97051.63;6280603;20;3727388;-39
2023/11/03 07:34:40;;;;;;;;;106.00;87.25;;;;;14.65;84.97;97055.22;6280782;20;4470028;-40
2023/11/03 07:37:09;;;;;;;;;26.00;23.33;;;;;14.57;85.57;97052.59;6281072;20;3583619;-39
2023/11/03 07:39:40;;;;;;;;;46.33;36.67;;;;;14.50;86.42;97041.66;6280264;20;3603388;-39
2023/11/03 07:42:10;;;;;;;;;68.67;51.33;;;;;14.45;87.05;97037.84;6312312;20;3627385;-38
2023/11/03 07:44:38;;;;;;;;;92.00;78.00;;;;;14.57;87.67;97027.47;6275024;20;1945349;-39
2023/11/03 07:47:09;;;;;;;;;120.67;101.00;;;;;14.50;87.48;97027.34;6276676;20;3699214;-38
2023/11/03 07:49:38;;;;;;;;;170.00;144.00;;;;;14.54;88.31;97023.28;6275522;20;1955553;-39
2023/11/03 07:52:07;;;;;;;;;127.00;104.67;;;;;14.45;89.51;97027.03;6277695;20;3736697;-39
2023/11/03 07:54:36;;;;;;;;;214.50;173.50;;;;;14.39;90.29;97034.03;6275878;20;1949381;-38
2023/11/03 07:57:07;;;;;;;;;155.38;124.63;;;;;14.31;91.68;97027.88;6271344;20;3723147;-38
2023/11/03 07:59:40;;;;;;;;;180.00;151.50;;;;;14.48;92.65;97023.97;6271257;20;1961899;-39
2023/11/03 08:02:10;;;;;;;;;78.75;61.50;;;;;14.22;94.04;97030.66;6282504;20;4421092;-38
2023/11/03 08:04:40;;;;;;;;;87.50;72.00;;;;;14.14;95.38;97016.38;6309910;20;1940979;-38
2023/11/03 08:07:10;;;;;;;;;79.33;63.67;;;;;14.09;96.03;97013.41;6285252;20;3666966;-40
2023/11/03 08:09:41;;;;;;;;;76.43;68.43;;;;;14.16;96.23;97000.84;6312683;20;3649213;-38
2023/11/03 08:12:10;;;;;;;;;84.50;68.00;;;;;14.11;96.92;96992.47;6276095;20;1929613;-41
2023/11/03 08:14:40;;;;;;;;;58.67;46.00;;;;;14.28;96.88;96996.69;6282540;20;3637774;-38
2023/11/03 08:17:10;;;;;;;;;79.33;64.33;;;;;14.12;95.92;96981.50;6283843;20;3664856;-39
2023/11/03 08:19:38;;;;;;;;;88.00;68.00;;;;;14.08;98.12;96993.66;6280205;20;1942090;-38
2023/11/03 08:22:06;;;;;;;;;82.50;66.50;;;;;14.10;98.65;97010.53;6276074;20;1925364;-38
2023/11/03 08:24:34;;;;;;;;;69.50;49.00;;;;;14.03;100.00;97032.00;6280139;20;1921158;-39
2023/11/03 08:27:06;;;;;;;;;192.75;157.50;;;;;14.09;100.00;97008.84;6282182;20;4486826;-38
2023/11/03 08:29:36;;;;;;;;;504.60;383.20;;;;;13.93;100.00;96999.03;6269704;20;5342941;-41
2023/11/03 08:32:10;;;;;;;;;204.14;165.57;;;;;13.75;100.00;96972.38;6322491;20;2535781;-39
2023/11/03 08:34:40;;;;;;;;;198.67;160.67;;;;;13.80;100.00;96972.69;6312915;20;3729410;-39
2023/11/03 08:37:11;;;;;;;;;57.33;44.67;;;;;13.76;100.00;96965.13;6279602;20;3635680;-39
2023/11/03 08:39:42;;;;;;;;;134.33;113.67;;;;;13.79;100.00;96968.28;6315756;20;3720036;-39
2023/11/03 08:42:11;;;;;;;;;75.25;52.00;;;;;13.97;100.00;96956.34;6280605;20;4408621;-39
2023/11/03 08:44:40;;;;;;;;;71.67;52.33;;;;;13.86;100.00;96954.09;6316351;20;3632640;-40
2023/11/03 08:47:09;;;;;;;;;60.67;48.00;;;;;14.08;100.00;96980.19;6284224;20;3621180;-40
2023/11/03 08:49:38;;;;;;;;;36.33;32.67;;;;;13.91;100.00;96974.09;6284792;20;3608662;-39
2023/11/03 08:52:07;;;;;;;;;165.50;141.50;;;;;13.92;100.00;96991.13;6273173;20;1952524;-40
2023/11/03 08:54:36;;;;;;;;;32.67;31.33;;;;;13.87;100.00;97015.09;6285299;20;3603399;-44
2023/11/03 08:57:06;;;;;;;;;53.33;43.33;;;;;13.80;100.00;97007.75;6282528;20;3615870;-44
2023/11/03 08:59:38;;;;;;;;;73.88;53.75;;;;;13.76;100.00;96986.69;6310180;20;3653437;-45
2023/11/03 09:02:07;;;;;;;;;119.00;97.00;;;;;13.48;100.00;96956.75;6314112;20;1941061;-43
2023/11/03 09:04:37;;;;;;;;;79.33;64.33;;;;;13.56;100.00;96933.28;6285137;20;3669065;-43
2023/11/03 09:07:05;;;;;;;;;172.50;140.50;;;;;13.58;100.00;96935.78;6280200;20;1953589;-44
2023/11/03 09:09:33;;;;;;;;;174.00;138.50;;;;;13.73;100.00;96933.13;6277215;20;1949432;-48
2023/11/03 09:12:04;;;;;;;;;89.50;74.75;;;;;13.46;100.00;96924.59;6285185;20;4434630;-45
2023/11/03 09:14:33;;;;;;;;;184.00;143.50;;;;;13.35;100.00;96915.09;6281842;20;1951491;-44
2023/11/03 09:17:04;;;;;;;;;109.67;81.33;;;;;13.57;100.00;96912.56;6288458;20;3704549;-44
2023/11/03 09:19:34;;;;;;;;;73.75;53.25;;;;;13.50;100.00;96917.81;6320686;20;4396238;-39
2023/11/03 09:22:03;;;;;;;;;281.50;223.00;;;;;13.52;100.00;96909.56;6313423;20;1974353;-41
2023/11/03 09:24:35;;;;;;;;;211.75;178.00;;;;;13.53;100.00;96905.84;6284033;20;4434648;-40
2023/11/03 09:27:06;;;;;;;;;235.75;202.75;;;;;13.46;100.00;96913.00;6319242;20;4496142;-41
2023/11/03 09:29:38;;;;;;;;;96.25;80.25;;;;;13.53;100.00;96901.31;6285146;20;3669060;-51
2023/11/03 09:32:09;;;;;;;;;91.33;78.33;;;;;13.44;100.00;96912.31;6281612;20;3675247;-49
2023/11/03 09:34:38;;;;;;;;;93.00;75.00;;;;;13.62;100.00;96888.59;6314844;20;1931571;-45
2023/11/03 09:37:08;;;;;;;;;62.00;47.00;;;;;13.56;100.00;96882.06;6286224;20;4393561;-46
2023/11/03 09:39:39;;;;;;;;;117.33;96.67;;;;;13.54;100.00;96897.56;6321878;20;3704429;-48
2023/11/03 09:42:12;;;;;;;;;63.00;45.00;;;;;13.77;100.00;96888.59;6282589;20;2751342;-48
2023/11/03 09:44:40;;;;;;;;;76.00;57.00;;;;;13.76;100.00;96895.84;6279380;20;1925420;-45
2023/11/03 09:47:15;;;;;;;;;18.50;15.50;;;;;13.89;100.00;96918.66;6282159;20;2829452;-46
2023/11/03 09:49:45;;;;;;;;;22.50;20.50;;;;;13.75;100.00;96936.50;6283261;20;2848335;-46
2023/11/03 09:52:19;;;;;;;;;65.00;49.33;;;;;13.78;100.00;96941.53;6281798;20;3621123;-47
2023/11/03 09:54:51;;;;;;;;;58.00;46.00;;;;;13.77;100.00;96948.78;6315551;20;3615861;-46
2023/11/03 09:57:20;;;;;;;;;18.00;17.00;;;;;14.06;100.00;96971.44;6285116;20;2826334;-47
2023/11/03 09:59:49;;;;;;;;;16.67;14.67;;;;;14.11;100.00;96985.19;6283693;20;3539826;-45
2023/11/03 10:02:19;;;;;;;;;13.67;13.67;;;;;13.82;100.00;97039.91;6281823;20;3520074;-44
2023/11/03 10:04:47;;;;;;;;;16.00;14.50;;;;;13.66;100.00;97086.69;6315378;20;2500280;-46
2023/11/03 10:07:16;;;;;;;;;14.67;13.00;;;;;13.69;100.00;97124.13;6285953;20;3523189;-47
2023/11/03 10:09:48;;;;;;;;;10.67;10.67;;;;;13.70;100.00;97122.25;6317351;20;2794217;-40
2023/11/03 10:12:20;;;;;;;;;14.00;12.67;;;;;13.86;100.00;97137.50;6312894;20;3505563;-39
2023/11/03 10:14:49;;;;;;;;;18.67;12.00;;;;;13.78;100.00;97135.69;6312901;20;3516963;-40
2023/11/03 10:17:17;;;;;;;;;16.50;14.00;;;;;13.74;100.00;97116.31;6319262;20;2496101;-45
2023/11/03 10:19:46;;;;;;;;;15.50;14.00;;;;;13.73;100.00;97116.50;6289503;20;2810724;-45
2023/11/03 10:22:21;;;;;;;;;14.00;13.00;;;;;13.81;100.00;97114.59;6285175;20;3511798;-45
2023/11/03 10:24:51;;;;;;;;;18.60;14.80;;;;;13.58;100.00;97098.38;6341701;20;2814913;-45
2023/11/03 10:27:20;;;;;;;;;12.00;12.00;;;;;13.67;100.00;97101.88;6284458;20;3520118;-39
2023/11/03 10:29:53;;;;;;;;;15.67;13.00;;;;;13.51;100.00;97097.44;6317581;20;3547254;-44
2023/11/03 10:32:22;;;;;;;;;15.67;13.00;;;;;13.46;100.00;97075.56;6283535;20;3531509;-45
2023/11/03 10:34:53;;;;;;;;;16.00;16.00;;;;;13.58;100.00;97070.56;6313449;20;2823357;-45
2023/11/03 10:37:23;;;;;;;;;14.00;13.00;;;;;13.68;100.00;97060.41;6284324;20;3533647;-44
2023/11/03 10:39:52;;;;;;;;;14.33;14.33;;;;;13.73;100.00;97054.47;6282919;20;3526335;-45
2023/11/03 10:42:24;;;;;;;;;15.33;15.33;;;;;13.69;100.00;97056.72;6280045;20;3543090;-47
2023/11/03 10:44:58;;;;;;;;;14.00;14.00;;;;;13.72;100.00;97044.72;6314574;20;3523252;-46
2023/11/03 10:47:31;;;;;;;;;15.67;14.33;;;;;13.71;100.00;97057.34;6283617;20;3535771;-45
2023/11/03 10:50:06;;;;;;;;;13.67;13.67;;;;;13.55;100.00;97069.06;6313546;20;3522233;-47
2023/11/03 10:53:12;;;;;;;;;14.00;13.67;;;;;13.41;100.00;97080.63;6312197;20;3523221;-45
2023/11/03 10:55:58;;;;;;;;;14.50;14.50;;;;;13.65;100.00;97054.53;6312465;20;2492036;-44
2023/11/03 10:58:39;;;;;;;;;14.00;14.00;;;;;13.51;100.00;97037.28;6282353;20;3535760;-45
2023/11/03 11:01:42;;;;;;;;;14.00;14.00;;;;;13.59;100.00;97035.38;6283586;20;2798282;-44
2023/11/03 11:04:33;;;;;;;;;12.00;12.00;;;;;13.73;100.00;97047.22;6286175;20;2782564;-45
2023/11/03 11:07:14;;;;;;;;;14.00;14.00;;;;;13.75;100.00;97038.97;6282660;20;3533601;-44
2023/11/03 11:09:46;;;;;;;;;16.00;16.00;;;;;13.82;100.00;97029.97;6313551;20;2831552;-44
2023/11/03 11:12:14;;;;;;;;;16.00;14.67;;;;;13.54;100.00;97018.06;6282540;20;3540905;-44
2023/11/03 11:14:45;;;;;;;;;17.00;14.67;;;;;13.66;100.00;96996.88;6282604;20;3523326;-44